Latest Weather Observations for St Lawrence

IDQ60801

Issued at 8:32 pm EST Friday 19 December 2014 (issued every 30 minutes, with the page automatically refreshed every 10 minutes)

About weather observations | Map of weather stations | Latest weather observations for QLD | Other Formats
Station Details ID: 033210 Name: ST LAWRENCE Lat: -22.35 Lon: 149.52 Height: 9.19 m
Data from the previous 72 hours. | See also: Recent months at St Lawrence
Date/Time
EST
Temp
°C
App
Temp
°C
Dew
Point
Rel
Hum
%
Delta-T
°C
Wind Press
QNH
hPa
Press
MSL
hPa
Rain
since 9 am
mm
Dir
 
Spd
km/h
Gust
km/h
Spd
kts
Gust
kts
19/08:30pm 27.0 30.2 23.0 79 2.7 E 11 17 6 9 1012.2 1012.1 0.0
19/08:00pm 27.6 31.1 22.1 72 3.7 SE 7 11 4 6 1011.8 1011.7 0.0
19/07:30pm 28.1 31.8 22.3 70 3.9 SE 6 9 3 5 1011.4 1011.3 0.0
19/07:00pm 28.6 31.9 21.9 67 4.5 SSE 7 11 4 6 1011.0 1010.9 0.0
19/06:30pm 29.2 32.6 21.7 64 5.0 S 6 7 3 4 1010.6 1010.5 0.0
19/06:00pm 29.8 32.4 21.2 60 5.8 S 9 13 5 7 1010.4 1010.3 0.0
19/05:30pm 29.9 32.6 21.3 60 5.8 S 9 17 5 9 1009.9 1009.8 0.0
19/05:00pm 30.1 32.3 21.2 59 6.0 S 11 17 6 9 1009.8 1009.7 0.0
19/04:30pm 30.4 33.4 22.0 60 5.7 S 9 13 5 7 1009.6 1009.5 0.0
19/04:00pm 30.3 31.9 22.2 62 5.5 S 17 24 9 13 1009.6 1009.5 0.0
19/03:30pm 30.4 31.8 22.6 63 5.3 S 19 26 10 14 1009.6 1009.5 0.0
19/03:00pm 31.1 33.8 21.3 56 6.6 SSW 9 15 5 8 1009.8 1009.7 0.0
19/02:30pm 31.2 34.7 21.9 57 6.3 SSW 6 13 3 7 1010.0 1009.9 0.0
19/02:00pm 30.4 33.7 21.8 60 5.8 SW 7 13 4 7 1010.6 1010.5 0.0
19/01:30pm 30.6 34.5 22.5 62 5.5 SSE 6 11 3 6 1010.9 1010.8 0.0
19/01:00pm 29.8 32.2 21.5 61 5.6 SSE 11 17 6 9 1011.2 1011.1 0.0
19/12:30pm 29.2 31.9 21.4 63 5.2 SSW 9 15 5 8 1011.6 1011.5 0.0
19/12:00pm 27.8 30.1 21.3 67 4.3 S 11 17 6 9 1012.0 1011.9 0.0
19/11:30am 28.0 30.3 20.6 64 4.9 SSE 9 17 5 9 1012.2 1012.1 0.0
19/11:00am 28.0 29.6 20.8 65 4.8 S 13 20 7 11 1012.3 1012.2 0.0
19/10:30am 27.6 29.6 20.7 66 4.6 S 11 20 6 11 1012.3 1012.2 0.0
19/10:00am 26.8 28.2 20.4 68 4.2 S 13 19 7 10 1012.3 1012.2 0.0
19/09:30am 26.2 27.0 19.8 68 4.2 S 15 20 8 11 1012.4 1012.3 0.0
19/09:00am 26.0 27.2 19.9 69 4.0 S 13 19 7 10 1012.4 1012.3 0.0
19/08:30am 26.0 27.4 19.6 68 4.1 SSW 11 17 6 9 1012.2 1012.1 0.0
19/08:00am 26.0 26.9 19.2 66 4.4 S 13 19 7 10 1011.6 1011.5 0.0
19/07:30am 25.7 27.0 19.3 67 4.1 S 11 19 6 10 1011.5 1011.4 0.0
19/07:00am 25.0 27.2 19.6 72 3.5 SSW 7 13 4 7 1011.4 1011.3 0.0
19/06:30am 24.6 26.8 19.7 74 3.2 SSW 7 13 4 7 1011.0 1010.9 0.0
19/06:00am 24.3 26.1 19.6 75 3.0 SW 9 13 5 7 1011.0 1010.9 0.0
19/05:30am 24.0 26.5 19.9 78 2.6 SSW 6 7 3 4 1010.6 1010.5 0.0
19/05:00am 23.9 26.5 20.0 79 2.5 SSW 6 9 3 5 1010.4 1010.3 0.0
19/04:30am 24.1 26.5 20.0 78 2.6 SSW 7 11 4 6 1010.3 1010.2 0.0
19/04:00am 24.3 26.7 20.0 77 2.8 S 7 13 4 7 1010.1 1010.0 0.0
19/03:30am 24.6 26.6 19.9 75 3.0 S 9 15 5 8 1010.2 1010.1 0.0
19/03:00am 24.8 26.0 19.8 74 3.2 S 13 19 7 10 1010.3 1010.2 0.0
19/02:30am 25.8 25.8 19.0 66 4.4 SSE 17 24 9 13 1010.2 1010.1 0.0
19/02:00am 25.2 26.0 20.7 76 3.0 S 17 26 9 14 1010.6 1010.5 0.0
19/01:30am 26.0 26.1 20.3 71 3.7 SSW 20 30 11 16 1011.1 1011.0 0.0
19/01:00am 26.9 29.3 21.6 72 3.5 SW 11 15 6 8 1011.5 1011.4 0.0
19/12:30am 26.4 30.3 21.8 76 3.1 S 4 7 2 4 1011.4 1011.3 0.0
19/12:00am 26.7 30.4 22.3 77 3.0 N 6 9 3 5 1011.6 1011.5 0.0
 
Date/Time
EST
Temp
°C
App
Temp
°C
Dew
Point
Rel
Hum
%
Delta-T
°C
Wind Press
QNH
hPa
Press
MSL
hPa
Rain
since 9 am
mm
Dir
 
Spd
km/h
Gust
km/h
Spd
kts
Gust
kts
18/11:30pm 26.7 31.6 22.3 77 3.0 CALM 0 0 0 0 1012.2 1012.1 0.0
18/11:00pm 26.8 29.4 22.0 75 3.2 W 11 15 6 8 1013.3 1013.2 0.0
18/10:30pm 27.2 29.6 22.2 74 3.4 N 13 20 7 11 1011.7 1011.6 0.0
18/10:00pm 27.2 29.0 21.9 73 3.6 N 15 20 8 11 1011.5 1011.4 0.0
18/09:30pm 27.4 28.4 22.1 73 3.6 N 20 26 11 14 1011.1 1011.0 0.0
18/09:00pm 27.5 29.2 22.4 73 3.4 N 17 26 9 14 1010.9 1010.8 0.0
18/08:30pm 27.6 28.7 22.3 73 3.6 NNE 20 28 11 15 1010.8 1010.7 0.0
18/08:00pm 27.7 28.9 22.2 72 3.7 NNE 19 30 10 16 1010.6 1010.5 0.0
18/07:30pm 27.6 29.0 22.8 75 3.3 NNE 20 26 11 14 1010.2 1010.1 0.0
18/07:00pm 27.6 29.3 22.3 73 3.6 NNE 17 28 9 15 1009.9 1009.8 0.0
18/06:30pm 27.7 28.5 22.4 73 3.6 NNE 22 30 12 16 1009.3 1009.2 0.0
18/06:00pm 28.3 27.9 22.3 70 4.1 NNE 28 39 15 21 1008.8 1008.7 0.0
18/05:30pm 28.9 28.4 22.2 67 4.5 NNE 28 41 15 22 1008.5 1008.4 0.0
18/05:00pm 29.4 28.0 21.9 64 5.1 NNE 32 41 17 22 1007.8 1007.7 0.0
18/04:30pm 30.1 29.3 21.7 60 5.7 NNE 28 39 15 21 1007.5 1007.4 0.0
18/04:00pm 30.4 29.2 20.9 57 6.3 NNE 28 46 15 25 1007.4 1007.3 0.0
18/03:55pm 30.6 29.4 20.8 56 6.5 NNE 28 46 15 25 1007.4 1007.3 0.0
18/03:30pm 30.4 29.2 20.9 57 6.3 NNE 28 43 15 23 1007.5 1007.4 0.0
18/03:00pm 30.7 29.7 22.0 59 5.9 NNE 30 43 16 23 1007.9 1007.8 0.0
18/02:30pm 30.8 29.7 22.4 61 5.7 NE 32 43 17 23 1008.3 1008.2 0.0
18/02:00pm 30.9 29.8 22.5 61 5.7 NNE 32 41 17 22 1008.8 1008.7 0.0
18/01:30pm 31.6 30.8 22.3 57 6.3 NE 30 39 16 21 1009.2 1009.1 0.0
18/01:00pm 31.5 30.6 22.2 57 6.3 NE 30 41 16 22 1009.4 1009.3 0.0
18/12:30pm 31.3 31.2 22.9 61 5.8 NE 28 44 15 24 1009.5 1009.4 0.0
18/12:00pm 31.4 31.0 22.4 59 6.1 NE 28 39 15 21 1009.6 1009.5 0.0
18/11:30am 31.1 31.5 23.2 63 5.4 NE 26 37 14 20 1009.9 1009.8 0.0
18/11:00am 31.3 31.7 23.1 61 5.6 NE 26 33 14 18 1010.4 1010.3 0.0
18/10:30am 31.3 31.8 22.6 60 5.9 NE 24 33 13 18 1010.7 1010.6 0.0
18/10:00am 30.8 31.8 22.1 59 5.9 NE 20 30 11 16 1010.9 1010.8 0.0
18/09:30am 30.4 30.8 20.9 57 6.3 NNE 20 26 11 14 1011.3 1011.2 0.0
18/09:00am 30.1 30.3 20.1 55 6.6 NNE 19 26 10 14 1011.5 1011.4 0.0
18/08:30am 29.5 29.9 20.6 58 5.9 N 19 26 10 14 1011.7 1011.6 0.0
18/08:00am 28.4 29.7 20.9 64 5.0 N 15 22 8 12 1011.9 1011.8 0.0
18/07:30am 26.5 29.0 21.0 72 3.6 NNW 9 11 5 6 1011.8 1011.7 0.0
18/07:00am 24.8 28.0 21.3 81 2.3 N 6 7 3 4 1011.5 1011.4 0.0
18/06:30am 22.9 26.0 21.0 89 1.2 SW 6 6 3 3 1010.8 1010.7 0.0
18/06:00am 21.8 25.8 20.6 93 0.8 CALM 0 0 0 0 1010.4 1010.3 0.0
18/05:30am 21.1 24.8 19.9 93 0.8 CALM 0 0 0 0 1009.9 1009.8 0.0
18/05:00am 21.5 24.7 20.5 94 0.6 S 4 6 2 3 1009.6 1009.5 0.0
18/04:30am 21.5 24.1 20.5 94 0.6 SSW 7 7 4 4 1009.2 1009.1 0.0
18/04:00am 21.4 24.2 20.4 94 0.6 W 6 7 3 4 1009.0 1008.9 0.0
18/03:30am 21.7 25.5 20.2 91 1.0 CALM 0 0 0 0 1008.6 1008.5 0.0
18/03:00am 22.0 26.0 20.5 91 1.0 CALM 0 0 0 0 1008.5 1008.4 0.0
18/02:30am 22.1 25.7 20.6 91 1.0 WSW 2 6 1 3 1008.2 1008.1 0.0
18/02:00am 22.3 25.2 20.6 90 1.1 W 6 9 3 5 1008.2 1008.1 0.0
18/01:30am 23.6 26.2 20.5 83 2.0 NNW 7 9 4 5 1008.2 1008.1 0.0
18/01:00am 25.4 28.2 21.5 79 2.6 NNE 9 11 5 6 1008.3 1008.2 0.0
18/12:30am 25.1 28.4 21.4 80 2.4 NNE 6 9 3 5 1008.6 1008.5 0.0
18/12:00am 25.9 28.6 22.2 80 2.5 N 11 15 6 8 1008.7 1008.6 0.0
 
Date/Time
EST
Temp
°C
App
Temp
°C
Dew
Point
Rel
Hum
%
Delta-T
°C
Wind Press
QNH
hPa
Press
MSL
hPa
Rain
since 9 am
mm
Dir
 
Spd
km/h
Gust
km/h
Spd
kts
Gust
kts
17/11:30pm 26.4 28.9 22.5 79 2.6 NE 13 17 7 9 1008.6 1008.5 0.0
17/11:00pm 26.5 29.5 22.6 79 2.6 NNE 11 15 6 8 1008.5 1008.4 0.0
17/10:30pm 26.9 29.8 22.5 77 3.0 NNE 11 15 6 8 1008.5 1008.4 0.0
17/10:00pm 27.0 29.4 22.2 75 3.2 NNE 13 17 7 9 1008.4 1008.3 0.0
17/09:30pm 27.2 29.2 22.2 74 3.4 NNE 15 19 8 10 1008.1 1008.0 0.0
17/09:00pm 27.5 29.8 22.7 75 3.3 NNE 15 19 8 10 1008.2 1008.1 0.0
17/08:30pm 27.8 30.6 23.6 78 2.9 NNE 15 19 8 10 1008.2 1008.1 0.0
17/08:00pm 27.9 31.1 23.7 78 2.9 NNE 13 22 7 12 1007.8 1007.7 0.0
17/07:30pm 28.2 31.6 23.3 75 3.4 NNE 11 17 6 9 1007.6 1007.5 0.0
17/07:00pm 28.5 30.9 23.6 75 3.4 NNE 17 24 9 13 1007.2 1007.1 0.0
17/06:30pm 29.1 31.7 23.3 71 4.0 NNE 15 20 8 11 1007.0 1006.9 0.0
17/06:00pm 29.6 31.8 23.3 69 4.3 NE 17 22 9 12 1006.7 1006.6 0.0
17/05:30pm 30.6 32.0 22.5 62 5.5 NE 19 24 10 13 1006.2 1006.1 0.0
17/05:00pm 32.6 32.9 20.8 49 7.9 NE 20 26 11 14 1005.8 1005.7 0.0
17/04:30pm 33.0 32.4 19.8 45 8.7 NE 22 28 12 15 1005.5 1005.4 0.0
17/04:00pm 34.3 33.8 19.1 40 10.0 NE 20 30 11 16 1005.3 1005.2 0.0
17/03:30pm 33.9 34.0 20.3 45 9.1 NE 20 30 11 16 1005.4 1005.3 0.0
17/03:00pm 33.9 33.5 21.0 47 8.7 NE 24 30 13 16 1005.9 1005.8 0.0
17/02:30pm 34.5 35.0 21.2 46 9.0 NE 20 30 11 16 1006.4 1006.3 0.0
17/02:00pm 34.4 35.4 22.1 48 8.4 NE 20 28 11 15 1006.7 1006.6 0.0
17/01:30pm 34.5 35.0 21.9 48 8.6 NE 22 30 12 16 1006.8 1006.7 0.0
17/01:00pm 34.0 35.3 22.7 51 7.8 NE 20 28 11 15 1006.9 1006.8 0.0
17/12:30pm 33.5 34.1 21.3 48 8.2 NE 20 30 11 16 1007.2 1007.1 0.0
17/12:00pm 34.7 35.7 21.0 44 9.3 NE 17 26 9 14 1007.5 1007.4 0.0
17/11:30am 34.2 34.8 17.8 37 10.6 E 11 19 6 10 1007.6 1007.5 0.0
17/11:00am 33.2 34.9 19.3 44 9.2 ENE 9 17 5 9 1008.0 1007.9 0.0
17/10:30am 31.8 32.8 18.7 45 8.5 NE 11 15 6 8 1008.2 1008.1 0.0
17/10:00am 31.9 32.4 15.0 36 10.4 NE 6 11 3 6 1008.7 1008.6 0.0
17/09:30am 31.7 32.3 15.2 36 10.2 ENE 6 9 3 5 1008.6 1008.5 0.0
17/09:00am 30.0 30.7 16.1 43 8.7 NNE 7 11 4 6 1008.8 1008.7 0.0
17/08:30am 29.0 31.6 19.3 55 6.3 NNE 4 7 2 4 1008.9 1008.8 0.0
17/08:00am 27.4 29.7 19.5 62 5.1 ENE 6 9 3 5 1009.0 1008.9 0.0
17/07:30am 26.0 30.4 21.4 76 3.1 CALM 0 6 0 3 1008.7 1008.6 0.0
17/07:00am 23.8 28.0 20.9 84 1.9 CALM 0 0 0 0 1008.5 1008.4 0.0
17/06:30am 22.2 25.8 20.5 90 1.1 NNE 2 7 1 4 1008.4 1008.3 0.0
17/06:00am 20.8 24.3 19.5 92 0.8 CALM 0 7 0 4 1008.1 1008.0 0.0
17/05:30am 20.4 23.2 19.6 95 0.5 SW 4 7 2 4 1007.6 1007.5 0.0
17/05:00am 19.8 21.6 18.8 94 0.6 W 7 9 4 5 1007.3 1007.2 0.0
17/04:30am 20.6 23.1 19.8 95 0.5 SW 6 7 3 4 1007.2 1007.1 0.0
17/04:00am 20.9 24.2 19.9 94 0.6 S 2 6 1 3 1006.8 1006.7 0.0
17/03:30am 21.0 24.0 20.0 94 0.6 SSW 4 7 2 4 1006.8 1006.7 0.0
17/03:00am 21.2 24.9 20.0 93 0.8 CALM 0 6 0 3 1006.4 1006.3 0.0
17/02:30am 21.5 25.0 20.3 93 0.8 SSW 2 6 1 3 1006.4 1006.3 0.0
17/02:00am 21.8 24.7 20.6 93 0.8 WSW 6 7 3 4 1006.5 1006.4 0.0
17/01:30am 22.3 25.4 21.1 93 0.8 WSW 6 7 3 4 1006.8 1006.7 0.0
17/01:00am 22.7 26.3 21.3 92 0.9 WSW 4 6 2 3 1007.0 1006.9 0.0
17/12:30am 23.1 26.3 21.2 89 1.2 NW 6 7 3 4 1007.1 1007.0 0.0
17/12:00am 24.3 28.7 21.4 84 1.9 CALM 0 0 0 0 1007.3 1007.2 0.0
 
Date/Time
EST
Temp
°C
App
Temp
°C
Dew
Point
Rel
Hum
%
Delta-T
°C
Wind Press
QNH
hPa
Press
MSL
hPa
Rain
since 9 am
mm
Dir
 
Spd
km/h
Gust
km/h
Spd
kts
Gust
kts
16/11:30pm 25.6 28.8 22.3 82 2.2 NNE 9 11 5 6 1008.0 1007.9 0.0
16/11:00pm 25.6 28.7 22.1 81 2.3 NNE 9 11 5 6 1008.3 1008.2 0.0
16/10:30pm 26.0 28.3 22.1 79 2.6 NNE 13 15 7 8 1008.6 1008.5 0.0
16/10:00pm 26.3 29.4 22.2 78 2.8 NNE 9 15 5 8 1008.8 1008.7 0.0
16/09:30pm 26.6 28.9 22.0 76 3.1 NNE 13 17 7 9 1008.6 1008.5 0.0
16/09:00pm 27.0 30.1 22.2 75 3.2 N 9 15 5 8 1008.5 1008.4 0.0

Other Formats:

Comma delimited format used in spreadsheet applications
http://www.bom.gov.au/fwo/IDQ60801/IDQ60801.95369.axf

JavaScript Object Notation format (JSON) in row-major order
http://www.bom.gov.au/fwo/IDQ60801/IDQ60801.95369.json